createdAt,value
2022-11-03T00:00:15.617Z,942.84
2022-11-03T00:00:46.355Z,942.84
2022-11-03T00:01:17.348Z,942.94
2022-11-03T00:01:48.586Z,942.94
2022-11-03T00:02:19.499Z,942.84
2022-11-03T00:02:50.512Z,942.84
2022-11-03T00:03:22.475Z,942.94
2022-11-03T00:03:52.297Z,942.94
2022-11-03T00:04:23.396Z,942.94
2022-11-03T00:04:54.431Z,942.94
2022-11-03T00:05:25.338Z,942.73
2022-11-03T00:05:56.500Z,942.73
2022-11-03T00:06:27.394Z,942.94
2022-11-03T00:06:58.349Z,942.94
2022-11-03T00:07:29.380Z,943.04
2022-11-03T00:08:00.360Z,943.04
2022-11-03T00:08:32.434Z,942.94
2022-11-03T00:09:02.384Z,942.94
2022-11-03T00:09:33.441Z,942.84
2022-11-03T00:10:04.397Z,942.84
2022-11-03T00:10:35.427Z,942.84
2022-11-03T00:11:06.308Z,942.84
2022-11-03T00:11:37.312Z,942.73
2022-11-03T00:12:08.530Z,942.73
2022-11-03T00:12:39.439Z,942.73
2022-11-03T00:13:10.223Z,943.11
2022-11-03T00:13:42.360Z,943.11
2022-11-03T00:14:12.385Z,942.84
2022-11-03T00:14:43.356Z,942.84
2022-11-03T00:15:14.242Z,942.94
2022-11-03T00:15:45.332Z,942.94
2022-11-03T00:16:16.529Z,942.73
2022-11-03T00:16:47.575Z,942.73
2022-11-03T00:17:18.285Z,942.84
2022-11-03T00:17:49.205Z,942.84
2022-11-03T00:18:20.370Z,942.73
2022-11-03T00:18:52.374Z,942.73
2022-11-03T00:19:22.487Z,942.73
2022-11-03T00:19:53.446Z,942.73
2022-11-03T00:20:24.432Z,942.73
2022-11-03T00:20:55.322Z,942.73
2022-11-03T00:21:26.391Z,942.73
2022-11-03T00:21:57.283Z,942.73
2022-11-03T00:22:28.359Z,942.53
2022-11-03T00:22:59.289Z,942.53
2022-11-03T00:23:30.411Z,942.33
2022-11-03T00:24:02.372Z,942.33
2022-11-03T00:24:32.404Z,942.53
2022-11-03T00:25:03.432Z,942.53
2022-11-03T00:25:34.287Z,942.63
2022-11-03T00:26:05.614Z,942.63
2022-11-03T00:26:36.499Z,942.53
2022-11-03T00:27:07.281Z,942.53
2022-11-03T00:27:38.479Z,942.63
2022-11-03T00:28:09.489Z,942.53
2022-11-03T00:28:40.306Z,942.53
2022-11-03T00:29:12.282Z,942.33
2022-11-03T00:29:42.270Z,942.33
2022-11-03T00:30:13.589Z,942.53
2022-11-03T00:30:44.410Z,942.53
2022-11-03T00:31:15.315Z,942.63
2022-11-03T00:31:46.516Z,942.63
2022-11-03T00:32:17.544Z,942.43
2022-11-03T00:32:48.476Z,942.43
2022-11-03T00:33:19.229Z,942.43
2022-11-03T00:33:50.341Z,942.43
2022-11-03T00:34:22.309Z,942.53
2022-11-03T00:34:52.385Z,942.53
2022-11-03T00:35:23.258Z,942.43
2022-11-03T00:35:54.542Z,942.43
2022-11-03T00:36:25.266Z,942.33
2022-11-03T00:36:56.390Z,942.33
2022-11-03T00:37:27.263Z,942.53
2022-11-03T00:37:58.284Z,942.53
2022-11-03T00:38:29.442Z,942.53
2022-11-03T00:39:00.311Z,942.53
2022-11-03T00:39:32.333Z,942.33
2022-11-03T00:40:02.356Z,942.33
2022-11-03T00:40:33.418Z,942.43
2022-11-03T00:41:04.099Z,942.43
2022-11-03T00:41:35.463Z,942.53
2022-11-03T00:42:06.267Z,942.53
2022-11-03T00:42:37.206Z,942.33
2022-11-03T00:43:08.694Z,942.23
2022-11-03T00:43:39.549Z,942.23
2022-11-03T00:44:10.354Z,942.23
2022-11-03T00:44:42.240Z,942.23
2022-11-03T00:45:12.301Z,942.13
2022-11-03T00:45:43.435Z,942.13
2022-11-03T00:46:14.414Z,942.13
2022-11-03T00:46:45.386Z,942.13
2022-11-03T00:47:18.946Z,942.02
2022-11-03T00:47:47.322Z,942.02
2022-11-03T00:48:18.394Z,942.33
2022-11-03T00:48:49.190Z,942.33
2022-11-03T00:49:20.411Z,942.13
2022-11-03T00:49:52.223Z,942.13
2022-11-03T00:50:22.298Z,942.13
2022-11-03T00:50:53.385Z,942.13
2022-11-03T00:51:24.610Z,942.43
2022-11-03T00:51:55.423Z,942.43
2022-11-03T00:52:26.385Z,942.02
2022-11-03T00:52:57.210Z,942.02
2022-11-03T00:53:28.475Z,942.02
2022-11-03T00:53:59.405Z,942.02
2022-11-03T00:54:30.326Z,942.13
2022-11-03T00:55:02.330Z,942.13
2022-11-03T00:55:32.397Z,941.72
2022-11-03T00:56:03.378Z,941.72
2022-11-03T00:56:34.230Z,942.13
2022-11-03T00:57:05.294Z,942.13
2022-11-03T00:57:36.470Z,942.23
2022-11-03T00:58:07.312Z,942.23
2022-11-03T00:58:38.326Z,942.13
2022-11-03T00:59:09.626Z,942.13
2022-11-03T00:59:40.393Z,942.13
2022-11-03T01:00:14.905Z,942.02
2022-11-03T01:00:42.224Z,942.02
2022-11-03T01:01:13.460Z,942.02
2022-11-03T01:01:46.995Z,942.02
2022-11-03T01:02:15.499Z,941.92
2022-11-03T01:02:46.389Z,941.92
2022-11-03T01:03:17.299Z,941.92
2022-11-03T01:03:48.416Z,941.92
2022-11-03T01:04:19.189Z,942.13
2022-11-03T01:04:50.450Z,942.13
2022-11-03T01:05:22.314Z,941.92
2022-11-03T01:05:52.360Z,941.92
2022-11-03T01:06:23.262Z,942.13
2022-11-03T01:06:54.391Z,942.13
2022-11-03T01:07:25.538Z,942.23
2022-11-03T01:07:56.401Z,942.23
2022-11-03T01:08:27.848Z,942.02
2022-11-03T01:08:58.266Z,942.02
2022-11-03T01:09:29.433Z,942.13
2022-11-03T01:10:00.404Z,942.13
2022-11-03T01:10:32.320Z,941.92
2022-11-03T01:11:02.380Z,941.92
2022-11-03T01:11:33.169Z,941.92
2022-11-03T01:12:04.247Z,941.92
2022-11-03T01:12:35.478Z,941.82
2022-11-03T01:13:06.466Z,941.82
2022-11-03T01:13:37.373Z,942.02
2022-11-03T01:14:08.460Z,942.23
2022-11-03T01:14:39.541Z,942.23
2022-11-03T01:15:13.197Z,941.92
2022-11-03T01:15:42.226Z,941.92
2022-11-03T01:16:12.171Z,942.13
2022-11-03T01:16:43.524Z,942.13
2022-11-03T01:17:14.436Z,942.13
2022-11-03T01:17:45.380Z,942.13
2022-11-03T01:18:16.484Z,941.92
2022-11-03T01:18:47.486Z,941.92
2022-11-03T01:19:18.381Z,942.02
2022-11-03T01:19:49.278Z,942.02
2022-11-03T01:20:20.278Z,942.02
2022-11-03T01:20:52.335Z,942.02
2022-11-03T01:21:22.382Z,941.92
2022-11-03T01:21:53.442Z,941.92
2022-11-03T01:22:24.388Z,942.02
2022-11-03T01:22:55.369Z,942.02
2022-11-03T01:23:26.450Z,942.13
2022-11-03T01:23:57.255Z,942.13
2022-11-03T01:24:28.425Z,941.82
2022-11-03T01:24:59.432Z,941.82
2022-11-03T01:25:30.267Z,942.13
2022-11-03T01:26:02.486Z,942.13
2022-11-03T01:26:32.604Z,942.23
2022-11-03T01:27:03.387Z,942.23
2022-11-03T01:27:34.146Z,941.92
2022-11-03T01:28:36.225Z,942.13
2022-11-03T01:29:07.342Z,942.13
2022-11-03T01:29:38.388Z,942.13
2022-11-03T01:30:12.300Z,941.92
2022-11-03T01:30:40.485Z,941.92
2022-11-03T01:31:12.255Z,941.92
2022-11-03T01:31:42.207Z,941.92
2022-11-03T01:32:13.226Z,942.02
2022-11-03T01:32:44.318Z,942.02
2022-11-03T01:33:15.367Z,941.82
2022-11-03T01:33:46.270Z,941.82
2022-11-03T01:34:17.250Z,941.92
2022-11-03T01:34:48.251Z,941.92
2022-11-03T01:35:19.241Z,941.92
2022-11-03T01:35:50.184Z,941.92
2022-11-03T01:36:22.392Z,941.72
2022-11-03T01:36:52.315Z,941.72
2022-11-03T01:37:23.256Z,942.02
2022-11-03T01:37:54.325Z,942.02
2022-11-03T01:38:25.527Z,941.92
2022-11-03T01:38:56.413Z,941.92
2022-11-03T01:39:27.294Z,941.72
2022-11-03T01:39:58.438Z,941.72
2022-11-03T01:40:29.128Z,941.92
2022-11-03T01:40:56.066Z,941.92
2022-11-03T01:41:27.250Z,941.72
2022-11-03T01:41:57.380Z,941.72
2022-11-03T01:42:28.175Z,941.82
2022-11-03T01:42:59.741Z,941.82
2022-11-03T01:43:38.650Z,942.02
2022-11-03T01:44:06.620Z,942.02
2022-11-03T01:44:37.566Z,941.92
2022-11-03T01:45:14.299Z,942.13
2022-11-03T01:45:39.339Z,942.13
2022-11-03T01:46:10.407Z,942.13
2022-11-03T01:46:42.653Z,942.13
2022-11-03T01:47:12.739Z,941.92
2022-11-03T01:47:43.286Z,941.92
2022-11-03T01:48:14.476Z,941.82
2022-11-03T01:48:45.313Z,941.82
2022-11-03T01:49:16.471Z,942.13
2022-11-03T01:49:47.607Z,942.13
2022-11-03T01:50:18.317Z,942.02
2022-11-03T01:50:49.452Z,942.02
2022-11-03T01:51:20.474Z,941.92
2022-11-03T01:51:52.373Z,941.92
2022-11-03T01:52:22.339Z,941.82
2022-11-03T01:52:53.343Z,941.82
2022-11-03T01:53:24.283Z,941.92
2022-11-03T01:53:55.402Z,941.92
2022-11-03T01:54:26.321Z,941.92
2022-11-03T01:54:57.434Z,941.92
2022-11-03T01:55:28.435Z,941.92
2022-11-03T01:55:59.440Z,941.92
2022-11-03T01:56:30.167Z,941.72
2022-11-03T01:57:02.267Z,941.72
2022-11-03T01:57:32.268Z,942.02
2022-11-03T01:58:03.237Z,942.02
2022-11-03T01:58:34.410Z,941.72
2022-11-03T01:59:05.292Z,941.72
2022-11-03T01:59:36.343Z,941.82
2022-11-03T02:00:10.203Z,941.82
2022-11-03T02:00:38.445Z,941.82
2022-11-03T02:01:09.587Z,942.02
2022-11-03T02:01:40.341Z,942.02
2022-11-03T02:02:12.930Z,941.72
2022-11-03T02:02:42.451Z,941.72
2022-11-03T02:03:13.422Z,941.72
2022-11-03T02:03:44.431Z,941.72
2022-11-03T02:04:15.374Z,941.62
2022-11-03T02:04:46.328Z,941.62
2022-11-03T02:05:17.602Z,941.62
2022-11-03T02:05:48.406Z,941.62
2022-11-03T02:06:19.288Z,941.72
2022-11-03T02:06:50.291Z,941.72
2022-11-03T02:07:22.464Z,941.52
2022-11-03T02:07:52.279Z,941.52
2022-11-03T02:08:23.436Z,941.72
2022-11-03T02:08:54.404Z,941.72
2022-11-03T02:09:25.554Z,941.52
2022-11-03T02:09:56.350Z,941.52
2022-11-03T02:10:27.694Z,941.62
2022-11-03T02:10:58.215Z,941.62
2022-11-03T02:11:29.107Z,941.72
2022-11-03T02:12:00.243Z,941.72
2022-11-03T02:12:32.569Z,941.52
2022-11-03T02:13:02.440Z,941.52
2022-11-03T02:13:33.307Z,941.62
2022-11-03T02:14:04.602Z,941.62
2022-11-03T02:14:35.500Z,941.41
2022-11-03T02:15:09.305Z,941.41
2022-11-03T02:15:37.609Z,941.41
2022-11-03T02:16:08.644Z,941.62
2022-11-03T02:16:39.254Z,941.62
2022-11-03T02:17:10.513Z,941.41
2022-11-03T02:17:42.211Z,941.41
2022-11-03T02:18:12.532Z,941.41
2022-11-03T02:18:43.273Z,941.41
2022-11-03T02:19:14.358Z,941.41
2022-11-03T02:19:45.235Z,941.41
2022-11-03T02:20:16.420Z,941.41
2022-11-03T02:20:47.485Z,941.41
2022-11-03T02:21:18.335Z,941.52
2022-11-03T02:21:49.328Z,941.52
2022-11-03T02:22:20.089Z,941.62
2022-11-03T02:22:52.454Z,941.62
2022-11-03T02:23:22.418Z,941.52
2022-11-03T02:23:53.245Z,941.52
2022-11-03T02:24:24.549Z,941.41
2022-11-03T02:24:55.397Z,941.41
2022-11-03T02:25:26.359Z,941.41
2022-11-03T02:25:57.187Z,941.41
2022-11-03T02:26:28.371Z,941.62
2022-11-03T02:26:59.372Z,941.62
2022-11-03T02:27:30.226Z,941.52
2022-11-03T02:28:02.328Z,941.52
2022-11-03T02:28:32.544Z,941.41
2022-11-03T02:29:03.306Z,941.41
2022-11-03T02:29:34.457Z,941.31
2022-11-03T02:30:08.185Z,941.31
2022-11-03T02:30:36.372Z,941.31
2022-11-03T02:31:07.449Z,941.31
2022-11-03T02:31:38.436Z,941.52
2022-11-03T02:32:09.607Z,941.52
2022-11-03T02:32:40.515Z,941.52
2022-11-03T02:33:12.491Z,941.52
2022-11-03T02:33:42.587Z,941.52
2022-11-03T02:34:13.417Z,941.21
2022-11-03T02:34:44.379Z,941.21
2022-11-03T02:35:15.208Z,941.31
2022-11-03T02:35:46.380Z,941.31
2022-11-03T02:36:17.573Z,941.41
2022-11-03T02:36:48.522Z,941.41
2022-11-03T02:37:19.173Z,941.31
2022-11-03T02:37:50.375Z,941.31
2022-11-03T02:38:22.582Z,941.11
2022-11-03T02:38:52.399Z,941.11
2022-11-03T02:39:23.314Z,941.41
2022-11-03T02:39:54.159Z,941.41
2022-11-03T02:40:25.283Z,941.31
2022-11-03T02:40:56.203Z,941.31
2022-11-03T02:41:27.305Z,941.21
2022-11-03T02:41:58.466Z,941.21
2022-11-03T02:42:29.468Z,941.31
2022-11-03T02:43:00.269Z,941.31
2022-11-03T02:43:32.435Z,941.21
2022-11-03T02:44:02.410Z,941.21
2022-11-03T02:44:33.460Z,941.01
2022-11-03T02:45:07.256Z,941.01
2022-11-03T02:45:35.400Z,941.31
2022-11-03T02:46:06.420Z,941.31
2022-11-03T02:46:37.382Z,941.31
2022-11-03T02:47:08.431Z,941.31
2022-11-03T02:47:39.311Z,941.31
2022-11-03T02:48:10.642Z,941.21
2022-11-03T02:48:42.461Z,941.21
2022-11-03T02:49:12.374Z,941.01
2022-11-03T02:49:43.504Z,941.01
2022-11-03T02:50:14.463Z,941.11
2022-11-03T02:50:45.406Z,941.11
2022-11-03T02:51:16.471Z,941.11
2022-11-03T02:51:47.487Z,941.11
2022-11-03T02:52:18.497Z,941.11
2022-11-03T02:52:49.569Z,941.11
2022-11-03T02:53:20.555Z,941.11
2022-11-03T02:53:52.610Z,941.11
2022-11-03T02:54:22.555Z,941.11
2022-11-03T02:54:53.512Z,941.11
2022-11-03T02:55:24.632Z,941.11
2022-11-03T02:55:55.728Z,941.11
2022-11-03T02:56:26.499Z,941.11
2022-11-03T02:56:57.344Z,941.11
2022-11-03T02:57:28.535Z,941.21
2022-11-03T02:57:59.619Z,941.21
2022-11-03T02:58:30.379Z,941.01
2022-11-03T02:59:02.492Z,941.01
2022-11-03T02:59:32.210Z,941.01
2022-11-03T03:00:06.055Z,941.01
2022-11-03T03:00:34.315Z,941.01
2022-11-03T03:01:05.505Z,941.01
2022-11-03T03:01:36.433Z,940.84
2022-11-03T03:02:07.636Z,940.84
2022-11-03T03:02:38.525Z,940.91
2022-11-03T03:03:09.626Z,940.84
2022-11-03T03:03:40.471Z,940.84
2022-11-03T03:04:12.319Z,940.91
2022-11-03T03:04:42.415Z,940.91
2022-11-03T03:05:13.286Z,940.91
2022-11-03T03:05:44.526Z,940.91
2022-11-03T03:06:15.436Z,940.91
2022-11-03T03:06:46.236Z,940.91
2022-11-03T03:07:17.387Z,940.91
2022-11-03T03:07:48.548Z,940.91
2022-11-03T03:08:19.497Z,940.74
2022-11-03T03:08:50.361Z,940.74
2022-11-03T03:09:22.265Z,940.84
2022-11-03T03:09:52.320Z,940.84
2022-11-03T03:10:23.451Z,940.91
2022-11-03T03:10:54.399Z,940.91
2022-11-03T03:11:25.505Z,940.84
2022-11-03T03:11:56.569Z,940.84
2022-11-03T03:12:27.348Z,940.64
2022-11-03T03:12:58.283Z,940.64
2022-11-03T03:13:29.906Z,940.74
2022-11-03T03:14:00.447Z,940.74
2022-11-03T03:14:32.428Z,940.91
2022-11-03T03:15:05.322Z,940.91
2022-11-03T03:15:33.570Z,940.91
2022-11-03T03:16:04.652Z,940.91
2022-11-03T03:16:35.366Z,940.74
2022-11-03T03:17:06.321Z,940.74
2022-11-03T03:17:37.143Z,940.84
2022-11-03T03:18:08.526Z,940.74
2022-11-03T03:18:39.501Z,940.74
2022-11-03T03:19:10.245Z,940.84
2022-11-03T03:19:42.380Z,940.84
2022-11-03T03:20:12.352Z,940.84
2022-11-03T03:20:43.366Z,940.84
2022-11-03T03:21:14.164Z,940.74
2022-11-03T03:21:45.226Z,940.74
2022-11-03T03:22:16.398Z,940.74
2022-11-03T03:22:47.524Z,940.74
2022-11-03T03:23:18.774Z,940.64
2022-11-03T03:23:49.330Z,940.64
2022-11-03T03:24:20.503Z,940.74
2022-11-03T03:24:52.325Z,940.74
2022-11-03T03:25:22.405Z,940.84
2022-11-03T03:25:53.501Z,940.84
2022-11-03T03:26:24.388Z,940.74
2022-11-03T03:26:55.465Z,940.74
2022-11-03T03:27:26.520Z,940.74
2022-11-03T03:27:57.578Z,940.74
2022-11-03T03:28:28.332Z,940.53
2022-11-03T03:28:59.394Z,940.53
2022-11-03T03:29:30.598Z,940.84
2022-11-03T03:30:05.282Z,940.84
2022-11-03T03:30:32.511Z,940.53
2022-11-03T03:31:03.302Z,940.53
2022-11-03T03:31:34.226Z,940.64
2022-11-03T03:32:05.240Z,940.64
2022-11-03T03:32:36.243Z,940.74
2022-11-03T03:33:07.655Z,940.74
2022-11-03T03:33:39.780Z,940.74
2022-11-03T03:34:31.288Z,940.64
2022-11-03T03:35:12.426Z,940.64
2022-11-03T03:35:42.465Z,940.64
2022-11-03T03:36:13.361Z,940.74
2022-11-03T03:36:44.473Z,940.74
2022-11-03T03:37:15.599Z,940.64
2022-11-03T03:37:46.344Z,940.64
2022-11-03T03:38:17.387Z,940.53
2022-11-03T03:38:48.299Z,940.53
2022-11-03T03:39:19.469Z,940.64
2022-11-03T03:39:50.570Z,940.64
2022-11-03T03:40:22.299Z,940.43
2022-11-03T03:40:52.222Z,940.43
2022-11-03T03:41:23.444Z,940.84
2022-11-03T03:41:54.490Z,940.84
2022-11-03T03:42:25.695Z,940.64
2022-11-03T03:42:56.508Z,940.64
2022-11-03T03:43:27.638Z,940.74
2022-11-03T03:43:58.435Z,940.74
2022-11-03T03:44:29.247Z,940.53
2022-11-03T03:45:03.282Z,940.53
2022-11-03T03:45:32.456Z,940.64
2022-11-03T03:46:02.469Z,940.64
2022-11-03T03:46:33.450Z,940.43
2022-11-03T03:47:04.382Z,940.43
2022-11-03T03:47:35.459Z,940.53
2022-11-03T03:48:06.514Z,940.53
2022-11-03T03:48:37.460Z,940.64
2022-11-03T03:49:08.687Z,940.64
2022-11-03T03:49:39.175Z,940.64
2022-11-03T03:50:10.417Z,940.53
2022-11-03T03:50:42.366Z,940.53
2022-11-03T03:51:12.220Z,940.53
2022-11-03T03:51:43.476Z,940.53
2022-11-03T03:52:14.213Z,940.43
2022-11-03T03:52:45.346Z,940.43
2022-11-03T03:53:16.297Z,940.43
2022-11-03T03:53:47.401Z,940.43
2022-11-03T03:54:18.408Z,940.23
2022-11-03T03:54:49.360Z,940.23
2022-11-03T03:55:20.533Z,940.33
2022-11-03T03:55:52.406Z,940.33
2022-11-03T03:56:22.519Z,940.43
2022-11-03T03:56:53.479Z,940.43
2022-11-03T03:57:24.639Z,940.23
2022-11-03T03:57:59.439Z,940.23
2022-11-03T03:58:26.347Z,940.64
2022-11-03T03:58:57.338Z,940.64
2022-11-03T03:59:28.400Z,940.43
2022-11-03T03:59:59.526Z,940.43
2022-11-03T04:00:33.369Z,940.43
2022-11-03T04:01:02.466Z,940.43
2022-11-03T04:01:32.479Z,940.43
2022-11-03T04:02:03.573Z,940.43
2022-11-03T04:02:34.441Z,940.64
2022-11-03T04:03:05.382Z,940.64
2022-11-03T04:03:36.307Z,940.33
2022-11-03T04:04:07.547Z,940.33
2022-11-03T04:04:38.538Z,940.33
2022-11-03T04:05:09.587Z,940.43
2022-11-03T04:05:40.395Z,940.43
2022-11-03T04:06:12.411Z,940.13
2022-11-03T04:06:42.467Z,940.13
2022-11-03T04:07:13.511Z,940.53
2022-11-03T04:07:44.254Z,940.53
2022-11-03T04:08:15.440Z,940.43
2022-11-03T04:08:46.430Z,940.43
2022-11-03T04:09:17.507Z,940.23
2022-11-03T04:09:48.440Z,940.23
2022-11-03T04:10:19.390Z,940.33
2022-11-03T04:10:50.610Z,940.33
2022-11-03T04:11:23.009Z,940.43
2022-11-03T04:11:52.421Z,940.43
2022-11-03T04:12:23.290Z,940.03
2022-11-03T04:12:54.435Z,940.03
2022-11-03T04:13:25.486Z,940.23
2022-11-03T04:13:56.551Z,940.23
2022-11-03T04:14:27.436Z,940.33
2022-11-03T04:14:58.537Z,940.33
2022-11-03T04:15:32.244Z,940.23
2022-11-03T04:16:00.600Z,940.23
2022-11-03T04:16:32.527Z,940.13
2022-11-03T04:17:02.491Z,940.13
2022-11-03T04:17:33.443Z,940.13
2022-11-03T04:18:04.575Z,940.13
2022-11-03T04:18:35.606Z,940.13
2022-11-03T04:19:06.412Z,940.13
2022-11-03T04:19:37.340Z,940.23
2022-11-03T04:20:08.631Z,940.13
2022-11-03T04:20:39.481Z,940.13
2022-11-03T04:21:10.707Z,940.03
2022-11-03T04:21:42.573Z,940.03
2022-11-03T04:24:47.507Z,940.03
2022-11-03T04:25:18.571Z,940.23
2022-11-03T04:25:49.555Z,940.23
2022-11-03T04:26:20.350Z,940.23
2022-11-03T04:26:52.452Z,940.23
2022-11-03T04:27:22.497Z,940.03
2022-11-03T04:27:53.535Z,940.03
2022-11-03T04:28:24.649Z,939.92
2022-11-03T04:28:55.431Z,939.92
2022-11-03T04:29:26.496Z,940.03
2022-11-03T04:29:57.507Z,940.03
2022-11-03T04:30:31.166Z,939.92
2022-11-03T04:30:59.329Z,939.92
2022-11-03T04:31:30.565Z,939.72
2022-11-03T04:32:02.558Z,939.72
2022-11-03T04:32:32.471Z,940.03
2022-11-03T04:33:03.462Z,940.03
2022-11-03T04:33:34.153Z,939.92
2022-11-03T04:34:05.566Z,939.92
2022-11-03T04:34:36.354Z,940.13
2022-11-03T04:35:07.474Z,940.13
2022-11-03T04:35:38.301Z,939.92
2022-11-03T04:36:09.483Z,939.82
2022-11-03T04:36:40.456Z,939.82
2022-11-03T04:37:12.537Z,940.03
2022-11-03T04:37:46.446Z,940.03
2022-11-03T04:38:13.437Z,940.03
2022-11-03T04:38:44.349Z,940.03
2022-11-03T04:39:15.713Z,940.13
2022-11-03T04:39:46.602Z,940.13
2022-11-03T04:40:17.455Z,940.03
2022-11-03T04:40:50.571Z,940.03
2022-11-03T04:41:19.192Z,939.82
2022-11-03T04:41:50.600Z,939.82
2022-11-03T04:42:22.630Z,939.92
2022-11-03T04:42:52.317Z,939.92
2022-11-03T04:43:23.597Z,939.82
2022-11-03T04:43:54.524Z,939.82
2022-11-03T04:44:25.517Z,939.92
2022-11-03T04:44:56.174Z,939.92
2022-11-03T04:45:30.254Z,939.92
2022-11-03T04:45:58.416Z,939.92
2022-11-03T04:46:29.332Z,939.72
2022-11-03T04:47:00.296Z,939.72
2022-11-03T04:47:32.305Z,939.82
2022-11-03T04:48:02.538Z,939.82
2022-11-03T04:48:33.609Z,939.92
2022-11-03T04:49:04.274Z,939.92
2022-11-03T04:49:35.528Z,940.03
2022-11-03T04:50:06.431Z,940.03
2022-11-03T04:50:37.255Z,939.72
2022-11-03T04:51:08.674Z,939.42
2022-11-03T04:51:39.512Z,939.42
2022-11-03T04:52:10.493Z,939.62
2022-11-03T04:52:42.450Z,939.62
2022-11-03T04:53:12.511Z,939.82
2022-11-03T04:53:43.450Z,939.82
2022-11-03T04:54:14.411Z,939.52
2022-11-03T04:54:45.397Z,939.52
2022-11-03T04:55:16.564Z,939.72
2022-11-03T04:55:47.559Z,939.72
2022-11-03T04:56:18.360Z,939.72
2022-11-03T04:56:49.355Z,939.72
2022-11-03T04:57:20.528Z,939.72
2022-11-03T04:57:52.410Z,939.72
2022-11-03T04:58:22.425Z,939.82
2022-11-03T04:58:53.658Z,939.82
2022-11-03T04:59:24.442Z,939.92
2022-11-03T04:59:55.383Z,939.92
2022-11-03T05:00:29.040Z,939.72
2022-11-03T05:00:57.641Z,939.72
2022-11-03T05:01:28.388Z,939.72
2022-11-03T05:01:59.371Z,939.72
2022-11-03T05:02:30.672Z,939.72
2022-11-03T05:03:02.706Z,939.72
2022-11-03T05:03:32.514Z,939.62
2022-11-03T05:04:03.582Z,939.62
2022-11-03T05:04:34.322Z,939.62
2022-11-03T05:05:05.691Z,939.62
2022-11-03T05:05:36.667Z,939.52
2022-11-03T05:06:07.288Z,939.52
2022-11-03T05:06:38.484Z,939.72
2022-11-03T05:07:09.595Z,939.62
2022-11-03T05:07:40.495Z,939.62
2022-11-03T05:08:12.691Z,939.72
2022-11-03T05:08:42.595Z,939.72
2022-11-03T05:09:13.499Z,939.62
2022-11-03T05:09:44.463Z,939.62
2022-11-03T05:10:15.666Z,939.52
2022-11-03T05:10:46.283Z,939.52
2022-11-03T05:11:17.497Z,939.42
2022-11-03T05:11:48.410Z,939.42
2022-11-03T05:12:19.361Z,939.62
2022-11-03T05:12:50.414Z,939.62
2022-11-03T05:13:22.382Z,939.62
2022-11-03T05:13:52.239Z,939.62
2022-11-03T05:14:23.448Z,939.42
2022-11-03T05:14:58.725Z,939.42
2022-11-03T05:15:28.279Z,939.42
2022-11-03T05:15:56.278Z,939.42
2022-11-03T05:16:27.622Z,939.21
2022-11-03T05:16:58.481Z,939.21
2022-11-03T05:17:29.202Z,939.42
2022-11-03T05:18:00.518Z,939.42
2022-11-03T05:18:32.590Z,939.42
2022-11-03T05:19:02.538Z,939.42
2022-11-03T05:19:33.396Z,939.52
2022-11-03T05:20:04.194Z,939.52
2022-11-03T05:20:36.325Z,939.62
2022-11-03T05:21:06.396Z,939.62
2022-11-03T05:21:37.506Z,939.52
2022-11-03T05:22:08.607Z,939.52
2022-11-03T05:22:39.491Z,939.52
2022-11-03T05:23:10.551Z,939.52
2022-11-03T05:23:42.318Z,939.52
2022-11-03T05:24:12.734Z,939.52
2022-11-03T05:24:43.406Z,939.52
2022-11-03T05:25:16.851Z,939.42
2022-11-03T05:25:45.446Z,939.42
2022-11-03T05:26:19.138Z,939.42
2022-11-03T05:26:48.083Z,939.42
2022-11-03T05:27:18.742Z,939.52
2022-11-03T05:27:49.732Z,939.52
2022-11-03T05:28:20.452Z,939.42
2022-11-03T05:28:52.588Z,939.42
2022-11-03T05:29:22.420Z,939.21
2022-11-03T05:29:56.386Z,939.21
2022-11-03T05:30:28.344Z,939.42
2022-11-03T05:30:55.603Z,939.42
2022-11-03T05:31:26.436Z,939.42
2022-11-03T05:31:57.415Z,939.42
2022-11-03T05:32:28.471Z,939.52
2022-11-03T05:32:59.467Z,939.52
2022-11-03T05:33:30.365Z,939.42
2022-11-03T05:34:02.519Z,939.42
2022-11-03T05:34:32.507Z,939.31
2022-11-03T05:35:03.635Z,939.31
2022-11-03T05:35:34.431Z,939.31
2022-11-03T05:36:05.600Z,939.31
2022-11-03T05:36:36.480Z,939.42
2022-11-03T05:37:07.448Z,939.42
2022-11-03T05:37:38.611Z,939.31
2022-11-03T05:38:09.722Z,939.21
2022-11-03T05:38:40.310Z,939.21
2022-11-03T05:39:12.247Z,939.31
2022-11-03T05:39:42.335Z,939.31
2022-11-03T05:40:13.586Z,939.11
2022-11-03T05:40:44.611Z,939.11
2022-11-03T05:41:15.330Z,939.31
2022-11-03T05:41:46.327Z,939.31
2022-11-03T05:42:17.628Z,939.31
2022-11-03T05:42:48.682Z,939.31
2022-11-03T05:43:19.402Z,939.31
2022-11-03T05:43:50.556Z,939.31
2022-11-03T05:44:22.353Z,939.21
2022-11-03T05:44:52.328Z,939.21
2022-11-03T05:45:26.021Z,939.21
2022-11-03T05:45:54.583Z,939.21
2022-11-03T05:46:25.386Z,939.21
2022-11-03T05:46:56.499Z,939.21
2022-11-03T05:47:27.652Z,939.31
2022-11-03T05:47:58.482Z,939.31
2022-11-03T05:48:29.519Z,939.52
2022-11-03T05:49:00.427Z,939.52
2022-11-03T05:49:32.454Z,939.31
2022-11-03T05:50:02.412Z,939.31
2022-11-03T05:50:33.481Z,939.21
2022-11-03T05:51:04.413Z,939.21
2022-11-03T05:51:35.550Z,939.01
2022-11-03T05:52:06.334Z,939.01
2022-11-03T05:52:37.283Z,939.42
2022-11-03T05:53:08.404Z,939.31
2022-11-03T05:53:39.418Z,939.31
2022-11-03T05:54:13.319Z,939.31
2022-11-03T05:54:42.435Z,939.31
2022-11-03T05:55:12.480Z,939.31
2022-11-03T05:55:43.553Z,939.31
2022-11-03T05:56:14.458Z,939.21
2022-11-03T05:56:45.555Z,939.21
2022-11-03T05:57:16.411Z,939.21
2022-11-03T05:57:47.479Z,939.21
2022-11-03T05:58:18.538Z,939.11
2022-11-03T05:58:49.490Z,939.11
2022-11-03T05:59:20.528Z,939.11
2022-11-03T05:59:52.359Z,939.11
2022-11-03T06:00:25.096Z,939.11
2022-11-03T06:00:53.675Z,939.11
2022-11-03T06:01:24.591Z,939.21
2022-11-03T06:01:55.636Z,939.21
2022-11-03T06:02:26.474Z,939.11
2022-11-03T06:02:57.700Z,939.11
2022-11-03T06:03:28.681Z,939.21
2022-11-03T06:03:59.311Z,939.21
2022-11-03T06:04:30.437Z,939.31
2022-11-03T06:05:02.437Z,939.31
2022-11-03T06:05:32.454Z,939.01
2022-11-03T06:06:03.247Z,939.01
2022-11-03T06:06:34.384Z,939.21
2022-11-03T06:07:05.496Z,939.21
2022-11-03T06:07:36.430Z,939.21
2022-11-03T06:08:07.648Z,939.21
2022-11-03T06:08:41.568Z,939.11
2022-11-03T06:09:09.457Z,939.11
2022-11-03T06:09:40.528Z,939.11
2022-11-03T06:10:12.694Z,939.21
2022-11-03T06:10:42.646Z,939.21
2022-11-03T06:11:13.487Z,939.31
2022-11-03T06:11:44.382Z,939.31
2022-11-03T06:12:15.708Z,939.01
2022-11-03T06:12:46.586Z,939.01
2022-11-03T06:13:17.623Z,939.01
2022-11-03T06:13:48.694Z,939.01
2022-11-03T06:14:19.965Z,939.11
2022-11-03T06:14:50.726Z,939.11
2022-11-03T06:15:25.432Z,939.01
2022-11-03T06:15:52.651Z,939.01
2022-11-03T06:16:23.799Z,938.91
2022-11-03T06:16:54.790Z,938.91
2022-11-03T06:17:25.823Z,938.81
2022-11-03T06:17:56.622Z,938.81
2022-11-03T06:18:28.044Z,939.11
2022-11-03T06:18:58.840Z,939.11
2022-11-03T06:19:29.773Z,939.01
2022-11-03T06:20:00.826Z,939.01
2022-11-03T06:20:32.659Z,939.01
2022-11-03T06:21:02.660Z,939.01
2022-11-03T06:21:33.827Z,939.01
2022-11-03T06:22:04.725Z,939.01
2022-11-03T06:22:35.574Z,938.81
2022-11-03T06:23:07.121Z,938.81
2022-11-03T06:23:37.583Z,939.11
2022-11-03T06:24:08.819Z,939.11
2022-11-03T06:24:39.786Z,939.11
2022-11-03T06:25:11.019Z,939.01
2022-11-03T06:25:42.803Z,939.01
2022-11-03T06:26:12.655Z,938.81
2022-11-03T06:26:43.848Z,938.81
2022-11-03T06:27:14.680Z,939.01
2022-11-03T06:27:45.751Z,939.01
2022-11-03T06:28:16.445Z,938.81
2022-11-03T06:28:47.766Z,938.81
2022-11-03T06:29:18.883Z,938.74
2022-11-03T06:29:49.737Z,938.74
2022-11-03T06:30:23.788Z,938.81